Time;durP1;ratioP1;P1;durP2;ratioP2;P2;SDS_P1;SDS_P2;PMS_P1;PMS_P2;Temp;Humidity;BMP_temperature;BMP_pressure;BME280_temperature;BME280_humidity;BME280_pressure;Samples;Min_cycle;Max_cycle;Signal;HPM_P1;HPM_P2
2021/09/11 00:01:32;;;;;;;12.30;6.00;;;17.20;99.90;;;;;;5072737;28;20191;-78
2021/09/11 00:03:59;;;;;;;8.87;5.63;;;17.10;99.90;;;;;;5072824;28;20203;-78
2021/09/11 00:06:26;;;;;;;11.90;5.43;;;17.20;99.90;;;;;;5072655;28;20321;-78
2021/09/11 00:08:53;;;;;;;9.40;5.60;;;17.20;99.90;;;;;;5072737;28;20201;-78
2021/09/11 00:11:20;;;;;;;7.47;5.23;;;17.20;99.90;;;;;;5073046;28;20293;-78
2021/09/11 00:13:47;;;;;;;10.97;5.60;;;17.20;99.90;;;;;;5073017;28;20547;-78
2021/09/11 00:16:15;;;;;;;10.77;5.27;;;17.10;99.90;;;;;;5072618;28;20234;-74
2021/09/11 00:18:42;;;;;;;9.80;5.40;;;17.10;99.90;;;;;;5072300;28;20708;-75
2021/09/11 00:21:08;;;;;;;11.27;5.83;;;17.10;99.90;;;;;;5070650;28;20727;-75
2021/09/11 00:23:35;;;;;;;10.73;6.50;;;17.10;99.90;;;;;;5068003;28;20641;-75
2021/09/11 00:26:02;;;;;;;9.70;5.90;;;17.10;99.90;;;;;;5072706;28;20226;-75
2021/09/11 00:28:29;;;;;;;12.33;6.73;;;17.00;99.90;;;;;;5072672;28;20576;-75
2021/09/11 00:30:56;;;;;;;8.93;6.27;;;17.10;99.90;;;;;;5073010;28;20203;-75
2021/09/11 00:33:26;;;;;;;8.87;6.47;;;17.00;99.90;;;;;;5075783;28;20306;-74
2021/09/11 00:35:53;;;;;;;14.57;6.70;;;16.90;99.90;;;;;;5065011;28;20206;-75
2021/09/11 00:38:19;;;;;;;11.73;6.93;;;16.90;99.90;;;;;;5069476;28;20218;-75
2021/09/11 00:40:46;;;;;;;12.73;6.47;;;16.90;99.90;;;;;;5076762;28;20686;-75
2021/09/11 00:43:20;;;;;;;11.13;6.27;;;16.90;99.90;;;;;;5076597;28;20211;-75
2021/09/11 00:45:47;;;;;;;12.23;6.50;;;16.90;99.90;;;;;;5076942;28;20212;-75
2021/09/11 00:48:14;;;;;;;11.33;6.10;;;16.90;99.90;;;;;;5076512;28;20199;-75
2021/09/11 00:50:42;;;;;;;11.57;6.57;;;16.90;99.90;;;;;;5076769;28;20196;-75
2021/09/11 00:53:10;;;;;;;15.43;6.80;;;16.80;99.90;;;;;;5076602;28;20203;-75
2021/09/11 00:55:38;;;;;;;11.00;6.93;;;16.80;99.90;;;;;;5076775;28;20199;-75
2021/09/11 00:58:05;;;;;;;10.30;6.33;;;16.80;99.90;;;;;;5076663;28;20199;-75
2021/09/11 01:00:32;;;;;;;15.33;6.83;;;16.80;99.90;;;;;;5076996;28;20208;-75
2021/09/11 01:02:59;;;;;;;14.33;6.73;;;16.80;99.90;;;;;;5076575;28;20282;-75
2021/09/11 01:05:26;;;;;;;14.87;7.30;;;16.70;99.90;;;;;;5076366;28;20310;-76
2021/09/11 01:07:54;;;;;;;15.30;6.77;;;16.70;99.90;;;;;;5076553;28;20225;-75
2021/09/11 01:10:21;;;;;;;10.50;6.80;;;16.70;99.90;;;;;;5076182;28;20762;-75
2021/09/11 01:12:49;;;;;;;13.30;6.83;;;16.70;99.90;;;;;;5076383;28;20200;-75
2021/09/11 01:15:16;;;;;;;13.57;7.17;;;16.60;99.90;;;;;;5076019;28;20204;-75
2021/09/11 01:17:45;;;;;;;15.30;7.03;;;16.70;99.90;;;;;;5075767;28;20199;-75
2021/09/11 01:20:13;;;;;;;15.73;6.50;;;16.70;99.90;;;;;;5075972;28;20200;-75
2021/09/11 01:22:40;;;;;;;14.87;7.03;;;16.70;99.90;;;;;;5076044;28;20548;-75
2021/09/11 01:25:11;;;;;;;16.23;7.00;;;16.60;99.90;;;;;;5075912;28;20203;-75
2021/09/11 01:27:38;;;;;;;13.77;7.70;;;16.60;99.90;;;;;;5076170;28;20559;-75
2021/09/11 01:30:08;;;;;;;12.30;7.37;;;16.60;99.90;;;;;;5075866;28;20732;-75
2021/09/11 01:32:35;;;;;;;13.83;7.50;;;16.60;99.90;;;;;;5075854;28;20207;-75
2021/09/11 01:35:02;;;;;;;17.50;7.90;;;16.60;99.90;;;;;;5075753;28;20213;-75
2021/09/11 01:37:29;;;;;;;15.63;8.13;;;16.60;99.90;;;;;;5076067;28;20294;-75
2021/09/11 01:39:56;;;;;;;14.47;8.23;;;16.70;99.90;;;;;;5075427;28;20664;-75
2021/09/11 01:42:26;;;;;;;13.67;7.60;;;16.80;99.90;;;;;;5071113;28;20202;-75
2021/09/11 01:44:55;;;;;;;11.57;7.23;;;16.90;99.90;;;;;;5066711;28;20295;-75
2021/09/11 01:47:23;;;;;;;11.23;7.43;;;17.00;99.90;;;;;;5065904;28;20647;-75
2021/09/11 01:49:50;;;;;;;13.40;6.90;;;17.00;99.90;;;;;;5075556;28;20201;-75
2021/09/11 01:52:17;;;;;;;11.67;6.37;;;17.10;99.90;;;;;;5075226;28;20286;-75
2021/09/11 01:54:44;;;;;;;11.93;6.77;;;17.10;99.90;;;;;;5075531;28;20195;-75
2021/09/11 01:57:11;;;;;;;10.83;6.53;;;17.20;99.90;;;;;;5075599;28;20192;-75
2021/09/11 01:59:40;;;;;;;10.37;5.87;;;17.20;99.90;;;;;;5075655;28;20225;-76
2021/09/11 02:02:08;;;;;;;12.83;6.27;;;17.20;99.90;;;;;;5075570;28;20203;-75
2021/09/11 02:04:36;;;;;;;13.60;5.60;;;17.20;99.90;;;;;;5075179;28;20675;-75
2021/09/11 02:07:04;;;;;;;9.03;5.40;;;17.20;99.90;;;;;;5075013;28;20215;-75
2021/09/11 02:09:32;;;;;;;13.07;5.63;;;17.30;99.90;;;;;;5076300;28;20199;-75
2021/09/11 02:11:59;;;;;;;9.47;5.60;;;17.30;99.90;;;;;;5085834;28;20294;-75
2021/09/11 02:14:27;;;;;;;9.60;5.13;;;17.30;99.90;;;;;;5074910;28;20286;-75
2021/09/11 02:16:55;;;;;;;11.10;5.63;;;17.30;99.90;;;;;;5070523;28;20192;-75
2021/09/11 02:19:22;;;;;;;9.47;5.70;;;17.40;99.90;;;;;;5074989;28;20289;-75
2021/09/11 02:21:49;;;;;;;11.40;5.53;;;17.30;99.90;;;;;;5074650;28;20282;-75
2021/09/11 02:24:16;;;;;;;13.37;5.97;;;17.40;99.90;;;;;;5074741;28;20195;-75
2021/09/11 02:26:43;;;;;;;10.57;5.30;;;17.40;99.90;;;;;;5074990;28;20306;-75
2021/09/11 02:29:10;;;;;;;12.13;5.63;;;17.40;99.90;;;;;;5074787;28;20291;-75
2021/09/11 02:31:37;;;;;;;10.50;5.50;;;17.50;99.90;;;;;;5074929;28;20196;-75
2021/09/11 02:34:06;;;;;;;12.10;5.67;;;17.50;99.90;;;;;;5074166;28;20286;-75
2021/09/11 02:36:33;;;;;;;10.13;5.20;;;17.50;99.90;;;;;;5074660;28;20198;-75
2021/09/11 02:38:59;;;;;;;11.23;5.03;;;17.60;99.90;;;;;;5074820;28;20278;-75
2021/09/11 02:41:26;;;;;;;11.17;5.13;;;17.60;99.90;;;;;;5074592;28;20290;-75
2021/09/11 02:43:53;;;;;;;6.43;4.67;;;17.50;99.90;;;;;;5074435;28;20191;-75
2021/09/11 02:46:20;;;;;;;10.30;4.80;;;17.60;99.90;;;;;;5074013;28;20229;-75
2021/09/11 02:48:47;;;;;;;9.67;5.33;;;17.60;99.90;;;;;;5074665;28;20248;-75
2021/09/11 02:51:15;;;;;;;9.73;4.70;;;17.60;99.90;;;;;;5074497;28;20282;-75
2021/09/11 02:53:42;;;;;;;10.90;5.10;;;17.60;99.90;;;;;;5074506;28;20207;-75
2021/09/11 02:56:09;;;;;;;14.87;4.50;;;17.50;99.90;;;;;;5073668;28;20191;-75
2021/09/11 02:58:36;;;;;;;18.10;4.97;;;17.60;99.90;;;;;;5074092;28;20739;-75
2021/09/11 03:01:03;;;;;;;7.70;4.47;;;17.60;99.90;;;;;;5073654;28;20191;-75
2021/09/11 03:03:30;;;;;;;8.43;4.93;;;17.60;99.90;;;;;;5074345;28;20231;-75
2021/09/11 03:05:56;;;;;;;14.17;4.90;;;17.60;99.90;;;;;;5073760;28;20253;-75
2021/09/11 03:08:25;;;;;;;12.40;5.20;;;17.60;99.90;;;;;;5074142;28;20286;-76
2021/09/11 03:10:51;;;;;;;13.13;4.80;;;17.60;99.90;;;;;;5073756;28;20198;-75
2021/09/11 03:13:18;;;;;;;8.57;4.47;;;17.60;99.90;;;;;;5073850;28;20210;-75
2021/09/11 03:15:46;;;;;;;9.77;5.00;;;17.60;99.90;;;;;;5073965;28;20197;-75
2021/09/11 03:18:12;;;;;;;8.87;4.50;;;17.60;99.90;;;;;;5074150;28;20195;-75
2021/09/11 03:20:39;;;;;;;9.53;5.13;;;17.60;99.90;;;;;;5073814;28;20286;-75
2021/09/11 03:23:07;;;;;;;10.83;5.20;;;17.60;99.90;;;;;;5073787;28;20206;-75
2021/09/11 03:25:35;;;;;;;11.20;5.00;;;17.70;99.90;;;;;;5073673;28;20195;-75
2021/09/11 03:28:02;;;;;;;9.67;5.30;;;17.70;99.90;;;;;;5073385;28;20322;-76
2021/09/11 03:30:29;;;;;;;9.30;4.73;;;17.60;99.90;;;;;;5073436;28;20674;-75
2021/09/11 03:32:56;;;;;;;10.07;4.87;;;17.60;99.90;;;;;;5073370;28;20214;-75
2021/09/11 03:35:23;;;;;;;6.77;4.13;;;17.50;99.90;;;;;;5073553;28;20203;-75
2021/09/11 03:37:50;;;;;;;9.37;4.37;;;17.60;99.90;;;;;;5073432;28;20199;-75
2021/09/11 03:40:17;;;;;;;9.33;4.17;;;17.60;99.90;;;;;;5073570;28;20223;-75
2021/09/11 03:42:46;;;;;;;7.37;4.53;;;17.60;99.90;;;;;;5073554;28;20252;-75
2021/09/11 03:45:13;;;;;;;9.43;4.23;;;17.60;99.90;;;;;;5072846;28;20278;-75
2021/09/11 03:47:40;;;;;;;11.70;4.87;;;17.70;99.90;;;;;;5073219;28;20233;-75
2021/09/11 03:50:09;;;;;;;8.30;3.80;;;17.70;99.90;;;;;;5073367;28;20195;-75
2021/09/11 03:52:36;;;;;;;13.73;4.17;;;17.80;99.90;;;;;;5073174;28;20191;-75
2021/09/11 03:55:04;;;;;;;9.43;3.60;;;17.70;99.90;;;;;;5073017;28;20613;-75
2021/09/11 03:57:32;;;;;;;8.47;3.70;;;17.80;99.90;;;;;;5073318;28;20195;-75
2021/09/11 04:00:00;;;;;;;9.27;4.27;;;17.80;99.90;;;;;;5073009;28;20686;-75
2021/09/11 04:02:27;;;;;;;5.77;3.87;;;17.70;99.90;;;;;;5073046;28;20652;-75
2021/09/11 04:04:54;;;;;;;7.67;3.07;;;17.80;99.90;;;;;;5073270;28;20278;-75
2021/09/11 04:07:20;;;;;;;8.00;3.50;;;17.80;99.90;;;;;;5072007;28;20579;-75
2021/09/11 04:09:47;;;;;;;7.60;3.47;;;17.80;99.90;;;;;;5072583;28;20413;-75
2021/09/11 04:12:14;;;;;;;9.20;3.40;;;17.70;99.90;;;;;;5072811;28;20382;-75
2021/09/11 04:14:41;;;;;;;7.07;3.43;;;17.70;99.90;;;;;;5073138;28;20191;-75
2021/09/11 04:17:09;;;;;;;8.27;3.53;;;17.70;99.90;;;;;;5073227;28;20206;-75
2021/09/11 04:19:36;;;;;;;8.00;3.10;;;17.80;99.90;;;;;;5072874;28;20286;-75
2021/09/11 04:22:03;;;;;;;14.03;3.90;;;17.80;99.90;;;;;;5072802;28;20295;-75
2021/09/11 04:24:30;;;;;;;16.13;3.47;;;17.80;99.90;;;;;;5072680;28;20204;-75
2021/09/11 04:26:57;;;;;;;9.43;3.40;;;17.80;99.90;;;;;;5072909;28;20227;-75
2021/09/11 04:29:24;;;;;;;7.33;3.83;;;17.80;99.90;;;;;;5073099;28;20218;-75
2021/09/11 04:31:51;;;;;;;6.73;3.20;;;17.90;99.90;;;;;;5072981;28;20299;-75
2021/09/11 04:34:19;;;;;;;11.80;3.20;;;17.90;99.90;;;;;;5073047;28;20282;-75
2021/09/11 04:36:46;;;;;;;9.93;3.33;;;17.80;99.90;;;;;;5072723;28;20202;-75
2021/09/11 04:39:12;;;;;;;7.67;3.60;;;17.80;99.90;;;;;;5072572;28;20289;-75
2021/09/11 04:41:39;;;;;;;7.77;3.47;;;17.90;99.90;;;;;;5072759;28;20294;-75
2021/09/11 04:44:06;;;;;;;8.53;3.90;;;17.90;99.90;;;;;;5072707;28;20198;-75
2021/09/11 04:46:33;;;;;;;10.30;3.67;;;17.90;99.90;;;;;;5072779;28;20310;-75
2021/09/11 04:49:00;;;;;;;7.37;4.03;;;17.80;99.90;;;;;;5072780;28;20214;-75
2021/09/11 04:51:28;;;;;;;7.83;4.03;;;17.90;99.90;;;;;;5072737;28;20231;-75
2021/09/11 04:53:55;;;;;;;12.83;4.50;;;17.90;99.90;;;;;;5072800;28;20561;-75
2021/09/11 04:56:22;;;;;;;7.07;3.87;;;17.90;99.90;;;;;;5072624;28;20282;-75
2021/09/11 04:58:49;;;;;;;9.17;3.90;;;18.00;99.90;;;;;;5072946;28;20231;-75
2021/09/11 05:01:15;;;;;;;11.23;4.23;;;17.90;99.90;;;;;;5072395;28;20206;-75
2021/09/11 05:03:42;;;;;;;9.07;4.20;;;17.80;99.90;;;;;;5072639;28;20230;-75
2021/09/11 05:06:10;;;;;;;8.23;4.27;;;17.80;99.90;;;;;;5072556;28;20196;-75
2021/09/11 05:08:39;;;;;;;8.80;4.03;;;17.80;99.90;;;;;;5072612;28;20227;-76
2021/09/11 05:11:07;;;;;;;7.73;4.20;;;17.80;99.90;;;;;;5072199;28;20202;-75
2021/09/11 05:13:34;;;;;;;7.63;4.00;;;17.90;99.90;;;;;;5084631;28;20202;-75
2021/09/11 05:16:01;;;;;;;12.67;4.77;;;17.90;99.90;;;;;;5072084;28;20294;-75
2021/09/11 05:18:28;;;;;;;13.40;4.60;;;17.90;99.90;;;;;;5073877;28;20206;-75
2021/09/11 05:20:55;;;;;;;12.30;4.60;;;17.90;99.90;;;;;;5075695;28;20198;-75
2021/09/11 05:23:22;;;;;;;10.77;4.77;;;17.90;99.90;;;;;;5076122;28;20196;-75
2021/09/11 05:25:50;;;;;;;6.63;4.40;;;17.90;99.90;;;;;;5075781;28;20242;-75
2021/09/11 05:28:17;;;;;;;9.70;4.50;;;17.90;99.90;;;;;;5075675;28;20652;-75
2021/09/11 05:30:44;;;;;;;8.93;4.40;;;17.90;99.90;;;;;;5075765;28;20661;-75
2021/09/11 05:33:11;;;;;;;10.53;4.17;;;18.00;99.90;;;;;;5075487;28;20249;-75
2021/09/11 05:35:37;;;;;;;6.57;4.27;;;18.00;99.90;;;;;;5076017;28;20199;-75
2021/09/11 05:38:04;;;;;;;13.17;5.00;;;18.00;99.90;;;;;;5075866;28;20286;-75
2021/09/11 05:40:31;;;;;;;10.63;4.33;;;18.00;99.90;;;;;;5075780;28;20287;-75
2021/09/11 05:43:00;;;;;;;7.53;4.60;;;18.00;99.90;;;;;;5075801;28;20294;-75
2021/09/11 05:45:27;;;;;;;8.13;4.57;;;18.00;99.90;;;;;;5075391;28;20304;-75
2021/09/11 05:47:53;;;;;;;9.53;4.27;;;18.00;99.90;;;;;;5075356;28;20615;-75
2021/09/11 05:50:20;;;;;;;11.83;4.83;;;18.00;99.90;;;;;;5075662;28;20315;-75
2021/09/11 05:52:47;;;;;;;8.23;4.83;;;18.00;99.90;;;;;;5075495;28;20199;-75
2021/09/11 05:55:15;;;;;;;10.50;4.67;;;18.00;99.90;;;;;;5075266;28;20732;-75
2021/09/11 05:57:42;;;;;;;6.27;4.60;;;18.00;99.90;;;;;;5075594;28;20192;-75
2021/09/11 06:00:12;;;;;;;9.57;4.80;;;18.00;99.90;;;;;;5075264;28;20307;-75
2021/09/11 06:02:39;;;;;;;10.77;5.20;;;18.00;99.90;;;;;;5075084;28;20282;-75
2021/09/11 06:05:07;;;;;;;9.63;4.90;;;18.10;99.90;;;;;;5075043;28;20196;-75
2021/09/11 06:07:34;;;;;;;10.60;5.10;;;18.10;99.90;;;;;;5075339;28;20306;-75
2021/09/11 06:10:01;;;;;;;9.10;5.27;;;18.10;99.90;;;;;;5075007;28;20199;-75
2021/09/11 06:12:28;;;;;;;8.77;4.87;;;18.20;99.90;;;;;;5074969;28;20561;-75
2021/09/11 06:14:55;;;;;;;13.37;5.73;;;18.20;99.90;;;;;;5074815;28;20669;-75
2021/09/11 06:17:23;;;;;;;11.87;5.23;;;18.20;99.90;;;;;;5075209;28;20195;-75
2021/09/11 06:19:50;;;;;;;13.20;5.93;;;18.20;99.90;;;;;;5075171;28;20230;-75
2021/09/11 06:22:17;;;;;;;9.03;4.60;;;18.20;99.90;;;;;;5075049;28;20242;-75
2021/09/11 06:24:44;;;;;;;13.20;5.83;;;18.20;99.90;;;;;;5074879;28;20227;-75
2021/09/11 06:27:13;;;;;;;9.63;5.23;;;18.30;99.90;;;;;;5074554;28;20219;-75
2021/09/11 06:29:39;;;;;;;7.87;5.37;;;18.40;99.90;;;;;;5073790;28;20210;-75
2021/09/11 06:32:07;;;;;;;15.17;6.40;;;18.30;99.90;;;;;;5074458;28;20290;-75
2021/09/11 06:34:35;;;;;;;12.67;5.67;;;18.40;99.90;;;;;;5074527;28;20241;-75
2021/09/11 06:37:02;;;;;;;10.73;5.73;;;18.50;99.90;;;;;;5074612;28;20282;-75
2021/09/11 06:39:29;;;;;;;10.80;5.67;;;18.60;99.90;;;;;;5074519;28;20241;-75
2021/09/11 06:41:56;;;;;;;8.43;5.63;;;18.60;99.90;;;;;;5074625;28;20562;-75
2021/09/11 06:44:23;;;;;;;13.07;5.83;;;18.70;99.90;;;;;;5074530;28;20570;-75
2021/09/11 06:46:50;;;;;;;9.83;5.70;;;18.80;99.90;;;;;;5074522;28;20292;-75
2021/09/11 06:49:17;;;;;;;11.07;5.83;;;18.80;99.90;;;;;;5074457;28;20191;-75
2021/09/11 06:51:45;;;;;;;11.00;5.70;;;19.00;99.90;;;;;;5074386;28;20291;-75
2021/09/11 06:54:12;;;;;;;12.27;5.87;;;19.10;99.90;;;;;;5074055;28;20195;-75
2021/09/11 06:56:39;;;;;;;10.03;5.93;;;19.10;99.90;;;;;;5074234;28;20231;-74
2021/09/11 06:59:06;;;;;;;10.80;5.73;;;19.10;99.90;;;;;;5074272;28;20294;-75
2021/09/11 07:01:32;;;;;;;11.73;6.50;;;19.20;99.90;;;;;;5074226;28;20282;-75
2021/09/11 07:03:59;;;;;;;11.13;5.87;;;19.30;99.90;;;;;;5074231;28;20286;-75
2021/09/11 07:06:26;;;;;;;12.17;5.97;;;19.30;99.90;;;;;;5073870;28;20206;-75
2021/09/11 07:08:54;;;;;;;9.97;5.30;;;19.40;99.90;;;;;;5074264;28;20317;-75
2021/09/11 07:11:21;;;;;;;8.97;5.67;;;19.40;99.90;;;;;;5073613;28;20286;-75
2021/09/11 07:13:48;;;;;;;11.93;4.90;;;19.40;99.90;;;;;;5073961;28;20196;-75
2021/09/11 07:16:15;;;;;;;8.47;5.50;;;19.30;99.90;;;;;;5073377;28;20616;-75
2021/09/11 07:18:42;;;;;;;9.60;6.40;;;19.30;99.90;;;;;;5073780;28;20617;-75
2021/09/11 07:21:08;;;;;;;11.83;5.77;;;19.10;99.90;;;;;;5073529;28;20253;-75
2021/09/11 07:23:36;;;;;;;8.53;5.90;;;19.10;99.90;;;;;;5073717;28;20195;-75
2021/09/11 07:26:05;;;;;;;12.27;6.27;;;19.20;99.90;;;;;;5073485;28;20202;-75
2021/09/11 07:28:31;;;;;;;12.90;5.90;;;19.20;99.90;;;;;;5073549;28;20251;-75
2021/09/11 07:30:58;;;;;;;7.50;5.10;;;19.30;99.90;;;;;;5073630;28;20302;-75
2021/09/11 07:33:25;;;;;;;11.13;6.33;;;19.30;99.90;;;;;;5053459;28;20208;-75
2021/09/11 07:35:52;;;;;;;11.07;6.10;;;19.40;99.90;;;;;;5053171;28;20583;-75
2021/09/11 07:38:19;;;;;;;13.70;6.30;;;19.50;99.90;;;;;;5056206;28;20716;-75
2021/09/11 07:40:46;;;;;;;11.20;6.77;;;19.60;99.90;;;;;;5073326;28;20307;-75
2021/09/11 07:43:14;;;;;;;11.13;7.03;;;19.80;99.90;;;;;;5073183;28;20290;-75
2021/09/11 07:45:41;;;;;;;9.50;6.00;;;19.90;99.90;;;;;;5073399;28;20210;-75
2021/09/11 07:48:08;;;;;;;12.97;7.07;;;20.10;99.90;;;;;;5073111;28;20261;-76
2021/09/11 07:50:36;;;;;;;13.33;6.63;;;20.20;99.90;;;;;;5073195;28;20712;-75
2021/09/11 07:53:03;;;;;;;11.33;6.13;;;20.40;99.90;;;;;;5072932;28;20209;-75
2021/09/11 07:55:30;;;;;;;7.83;5.87;;;20.40;99.90;;;;;;5073229;28;20206;-75
2021/09/11 07:57:58;;;;;;;11.10;6.63;;;20.50;99.90;;;;;;5073032;28;20286;-75
2021/09/11 08:00:28;;;;;;;9.57;6.07;;;20.50;99.90;;;;;;5072849;28;20243;-75
2021/09/11 08:02:55;;;;;;;11.27;6.50;;;20.60;99.90;;;;;;5073716;28;20211;-75
2021/09/11 08:05:22;;;;;;;9.33;5.83;;;20.80;99.90;;;;;;5072298;28;20544;-75
2021/09/11 08:07:50;;;;;;;8.97;6.00;;;20.90;99.90;;;;;;5069125;28;20227;-75
2021/09/11 08:10:17;;;;;;;9.00;6.00;;;21.10;99.90;;;;;;5073177;28;20558;-75
2021/09/11 08:12:44;;;;;;;10.80;5.93;;;21.10;99.90;;;;;;5073047;28;20206;-75
2021/09/11 08:15:11;;;;;;;8.97;6.03;;;21.30;99.90;;;;;;5085268;28;20205;-75
2021/09/11 08:17:39;;;;;;;12.70;5.60;;;21.40;99.90;;;;;;5073225;28;20195;-75
2021/09/11 08:20:07;;;;;;;8.53;5.80;;;21.60;99.90;;;;;;5072525;28;20202;-75
2021/09/11 08:22:34;;;;;;;10.47;5.73;;;21.70;99.90;;;;;;5072954;28;20282;-75
2021/09/11 08:25:01;;;;;;;8.60;5.82;;;21.90;99.90;;;;;;5072963;28;20231;-75
2021/09/11 08:27:28;;;;;;;8.65;5.78;;;22.00;99.90;;;;;;5072876;28;20286;-75
2021/09/11 08:29:55;;;;;;;8.70;5.60;;;22.10;99.90;;;;;;5072878;28;20294;-75
2021/09/11 08:32:22;;;;;;;10.65;6.25;;;22.00;99.90;;;;;;5072538;28;20601;-75
2021/09/11 08:34:52;;;;;;;10.13;6.53;;;21.90;99.90;;;;;;5071225;28;20199;-75
2021/09/11 08:37:19;;;;;;;8.30;5.80;;;21.50;99.90;;;;;;5060941;28;20745;-75
2021/09/11 08:39:46;;;;;;;9.13;6.30;;;21.20;99.90;;;;;;5052748;28;20679;-75
2021/09/11 08:42:13;;;;;;;11.63;6.80;;;21.10;99.90;;;;;;5059310;28;20198;-75
2021/09/11 08:44:40;;;;;;;8.07;5.93;;;21.50;99.90;;;;;;5072716;28;20676;-75
2021/09/11 08:47:07;;;;;;;7.50;5.57;;;22.00;99.90;;;;;;5072535;28;20218;-75
2021/09/11 08:49:34;;;;;;;10.93;6.10;;;22.30;99.90;;;;;;5072140;28;20259;-75
2021/09/11 08:52:07;;;;;;;9.57;5.55;;;22.30;99.90;;;;;;5072700;28;20275;-75
2021/09/11 08:54:34;;;;;;;9.65;5.28;;;22.30;99.90;;;;;;5075605;28;20248;-75
2021/09/11 08:57:18;;;;;;;9.32;5.32;;;22.40;99.90;;;;;;5076549;28;20226;-75
2021/09/11 08:59:45;;;;;;;8.43;5.93;;;22.50;99.90;;;;;;5076180;28;20195;-76
2021/09/11 09:02:12;;;;;;;9.45;5.57;;;22.40;99.90;;;;;;5075460;28;20279;-75
2021/09/11 09:04:47;;;;;;;10.35;4.93;;;22.20;99.90;;;;;;5076590;28;20213;-75
2021/09/11 09:07:36;;;;;;;6.93;5.10;;;22.10;99.90;;;;;;5075988;28;20212;-75
2021/09/11 09:10:06;;;;;;;7.97;5.47;;;22.20;99.90;;;;;;5076116;28;20207;-75
2021/09/11 09:12:34;;;;;;;8.52;5.20;;;22.30;99.90;;;;;;5075224;28;20195;-74
2021/09/11 09:15:04;;;;;;;8.25;4.90;;;22.50;99.90;;;;;;5071458;28;20610;-75
2021/09/11 09:17:46;;;;;;;8.10;5.50;;;22.80;99.90;;;;;;5074114;28;20691;-75
2021/09/11 09:20:19;;;;;;;13.88;6.13;;;23.10;99.90;;;;;;5063882;28;20282;-74
2021/09/11 09:22:49;;;;;;;6.65;4.97;;;23.00;99.90;;;;;;5075571;28;20191;-74
2021/09/11 09:25:27;;;;;;;7.95;5.40;;;23.40;99.90;;;;;;5075544;28;20196;-75
2021/09/11 09:27:57;;;;;;;7.32;5.43;;;23.70;99.90;;;;;;5075330;28;20283;-75
2021/09/11 09:30:37;;;;;;;7.63;5.07;;;23.60;99.90;;;;;;5075354;28;20638;-74
2021/09/11 09:33:04;;;;;;;7.65;5.78;;;23.50;99.90;;;;;;5075510;28;20230;-75
2021/09/11 09:35:32;;;;;;;7.10;6.13;;;23.60;99.90;;;;;;5075193;28;20198;-75
2021/09/11 09:38:02;;;;;;;8.50;6.18;;;23.60;99.90;;;;;;5075853;28;20234;-75
2021/09/11 09:40:36;;;;;;;9.15;6.57;;;23.80;99.90;;;;;;5075654;28;20234;-75
2021/09/11 09:43:04;;;;;;;8.68;6.22;;;23.80;99.90;;;;;;5075617;28;20563;-75
2021/09/11 09:45:31;;;;;;;7.47;6.72;;;23.80;99.90;;;;;;5074954;28;20200;-75
2021/09/11 09:48:03;;;;;;;10.63;6.75;;;23.80;99.90;;;;;;5075025;28;20230;-74
2021/09/11 09:50:33;;;;;;;8.43;6.22;;;23.90;99.90;;;;;;5054612;28;20742;-74
2021/09/11 09:53:02;;;;;;;8.65;6.05;;;24.10;99.90;;;;;;5054854;28;20290;-75
2021/09/11 09:55:29;;;;;;;7.03;6.13;;;24.40;99.90;;;;;;5053456;28;20682;-75
2021/09/11 09:57:56;;;;;;;9.27;6.15;;;24.60;99.90;;;;;;5073404;28;20250;-75
2021/09/11 10:00:24;;;;;;;8.88;6.60;;;24.70;99.90;;;;;;5074645;28;20286;-74
2021/09/11 10:02:51;;;;;;;9.88;7.00;;;24.30;99.90;;;;;;5075134;28;20226;-75
2021/09/11 10:05:20;;;;;;;8.45;6.80;;;23.90;99.90;;;;;;5074429;28;20198;-74
2021/09/11 10:07:56;;;;;;;7.55;6.85;;;23.80;99.90;;;;;;5075627;28;20200;-75
2021/09/11 10:10:33;;;;;;;7.70;6.70;;;23.70;99.90;;;;;;5074795;28;20294;-75
2021/09/11 10:13:08;;;;;;;8.95;6.95;;;23.50;99.90;;;;;;5074007;28;20249;-75
2021/09/11 10:15:36;;;;;;;8.65;6.82;;;23.40;99.90;;;;;;5074730;28;20282;-75
2021/09/11 10:18:05;;;;;;;8.95;6.70;;;23.40;99.90;;;;;;5073708;28;20203;-75
2021/09/11 10:21:05;;;;;;;7.95;6.63;;;23.50;99.90;;;;;;5074903;28;20373;-75
2021/09/11 10:23:32;;;;;;;7.93;7.13;;;23.30;99.90;;;;;;5073911;28;20908;-75
2021/09/11 10:26:00;;;;;;;7.35;6.53;;;23.00;99.90;;;;;;5075808;28;20222;-73
2021/09/11 10:28:27;;;;;;;10.35;6.90;;;23.00;99.90;;;;;;5078171;28;20216;-74
2021/09/11 10:31:08;;;;;;;12.00;7.60;;;22.90;99.90;;;;;;5078289;28;20195;-72
2021/09/11 10:33:50;;;;;;;8.38;7.00;;;22.90;99.90;;;;;;5074623;28;20203;-74
2021/09/11 10:36:22;;;;;;;12.27;7.20;;;22.90;99.90;;;;;;5072361;28;20625;-75
2021/09/11 10:38:51;;;;;;;9.18;7.38;;;23.20;99.90;;;;;;5074400;28;20191;-75
2021/09/11 10:41:20;;;;;;;8.70;6.75;;;23.70;99.90;;;;;;5074363;28;20196;-75
2021/09/11 10:44:04;;;;;;;9.30;6.15;;;24.10;99.90;;;;;;5074656;28;20277;-75
2021/09/11 10:46:49;;;;;;;11.75;6.45;;;24.30;99.90;;;;;;5074320;28;20199;-75
2021/09/11 10:49:30;;;;;;;9.25;7.22;;;24.10;99.90;;;;;;5054438;28;20618;-75
2021/09/11 10:52:05;;;;;;;8.30;6.05;;;23.80;99.90;;;;;;5070579;28;20191;-75
2021/09/11 10:54:34;;;;;;;7.53;5.82;;;23.50;99.90;;;;;;5075047;28;20195;-76
2021/09/11 10:57:09;;;;;;;82.75;63.33;;;22.90;99.90;;;;;;5075625;28;20300;-75
2021/09/11 10:59:38;;;;;;;10.32;7.68;;;22.70;99.90;;;;;;5071670;28;20186;-76
2021/09/11 11:02:14;;;;;;;12.40;7.00;;;22.40;99.90;;;;;;5073602;28;20231;-75
2021/09/11 11:05:04;;;;;;;10.50;7.03;;;22.40;99.90;;;;;;5072069;28;20278;-74
2021/09/11 11:07:32;;;;;;;7.35;6.50;;;22.60;99.90;;;;;;5070353;28;20191;-72
2021/09/11 11:10:01;;;;;;;7.22;5.88;;;22.70;99.90;;;;;;5073365;28;20215;-75
2021/09/11 11:12:31;;;;;;;8.73;6.53;;;22.70;99.90;;;;;;5072332;28;20206;-75
2021/09/11 11:15:00;;;;;;;10.20;6.57;;;22.70;99.90;;;;;;5073298;28;20294;-76
2021/09/11 11:17:28;;;;;;;7.55;6.47;;;22.70;99.90;;;;;;5072309;28;20617;-75
2021/09/11 11:19:56;;;;;;;7.20;5.53;;;22.80;99.90;;;;;;5071964;28;20195;-75
2021/09/11 11:22:34;;;;;;;5.90;5.20;;;23.10;99.90;;;;;;5072087;28;20275;-75
2021/09/11 11:25:02;;;;;;;10.30;5.70;;;23.40;99.90;;;;;;5071828;28;20189;-75
2021/09/11 11:27:30;;;;;;;10.25;5.85;;;23.50;99.90;;;;;;5072858;28;20282;-76
2021/09/11 11:29:59;;;;;;;7.13;5.70;;;23.50;99.90;;;;;;5073076;28;20219;-75
2021/09/11 11:32:27;;;;;;;5.75;4.75;;;23.70;99.90;;;;;;5072548;28;20208;-75
2021/09/11 11:34:59;;;;;;;6.10;5.40;;;23.90;99.90;;;;;;5073512;28;20196;-76
2021/09/11 11:37:28;;;;;;;7.22;5.13;;;23.80;99.90;;;;;;5073827;28;20222;-75
2021/09/11 11:39:58;;;;;;;9.95;4.65;;;23.90;99.90;;;;;;5073158;28;20213;-75
2021/09/11 11:42:26;;;;;;;5.47;4.93;;;23.90;99.90;;;;;;5073103;28;20675;-75
2021/09/11 11:44:55;;;;;;;10.18;5.38;;;23.90;99.90;;;;;;5072403;28;20195;-75
2021/09/11 11:47:39;;;;;;;9.18;5.30;;;23.50;99.90;;;;;;5072840;28;20202;-76
2021/09/11 11:50:16;;;;;;;6.28;4.95;;;23.10;99.90;;;;;;5073232;28;20207;-76
2021/09/11 11:52:44;;;;;;;9.73;5.00;;;23.00;99.90;;;;;;5073449;28;20224;-75
2021/09/11 11:55:13;;;;;;;10.15;5.32;;;23.20;99.90;;;;;;5073057;28;20575;-76
2021/09/11 11:57:39;;;;;;;5.47;4.30;;;23.60;99.90;;;;;;5072967;28;20278;-76
2021/09/11 12:00:11;;;;;;;8.32;5.15;;;24.10;99.90;;;;;;5073041;28;20196;-76
2021/09/11 12:02:39;;;;;;;8.25;4.95;;;24.10;99.90;;;;;;5073103;28;20672;-75
2021/09/11 12:05:15;;;;;;;5.28;3.50;;;23.90;99.90;;;;;;5072864;28;20207;-75
2021/09/11 12:07:52;;;;;;;7.20;4.00;;;23.10;99.90;;;;;;5072989;28;20285;-75
2021/09/11 12:10:19;;;;;;;9.50;4.07;;;22.10;99.90;;;;;;5073292;28;20218;-75
2021/09/11 12:12:48;;;;;;;9.77;4.73;;;21.40;99.90;;;;;;5073410;28;20201;-75
2021/09/11 12:15:18;;;;;;;9.93;5.47;;;21.00;99.90;;;;;;5072453;28;20209;-75
2021/09/11 12:18:00;;;;;;;9.80;5.40;;;20.80;99.90;;;;;;5070202;28;20201;-75
2021/09/11 12:20:29;;;;;;;8.80;5.67;;;20.80;99.90;;;;;;5072586;28;20230;-75
2021/09/11 12:23:12;;;;;;;10.97;5.47;;;20.90;99.90;;;;;;5072841;28;20206;-75
2021/09/11 12:25:56;;;;;;;13.90;6.07;;;21.00;99.90;;;;;;5068768;28;20195;-75
2021/09/11 12:28:48;;;;;;;8.60;5.67;;;21.00;99.90;;;;;;5074702;28;20202;-75
2021/09/11 12:31:23;;;;;;;10.07;5.50;;;21.10;99.90;;;;;;5065079;28;20192;-75
2021/09/11 12:33:52;;;;;;;11.03;6.10;;;21.30;99.90;;;;;;5076399;28;20209;-75
2021/09/11 12:36:21;;;;;;;9.20;5.97;;;21.40;99.90;;;;;;5076287;28;20198;-75
2021/09/11 12:38:48;;;;;;;9.53;5.77;;;21.40;99.90;;;;;;5076465;28;20286;-75
2021/09/11 12:41:15;;;;;;;11.33;5.80;;;21.50;99.90;;;;;;5076338;28;20206;-75
2021/09/11 12:43:42;;;;;;;11.47;6.50;;;21.50;99.90;;;;;;5076239;28;20205;-75
2021/09/11 12:46:11;;;;;;;10.30;6.17;;;21.50;99.90;;;;;;5076971;28;20689;-75
2021/09/11 12:48:39;;;;;;;8.88;5.43;;;21.50;99.90;;;;;;5076742;28;20211;-75
2021/09/11 12:51:06;;;;;;;8.37;5.77;;;21.70;99.90;;;;;;5076135;28;20309;-75